Wakefield, Ohio
Current Conditions -  °F | °C
As of 3:14 PM on Sunday 25 Jan 2015 (Local Time) from KRZT Reporting Station
Drizzle Drizzle  
Wind Chill: 37°   Ceiling: 2400
Heat Index: 37°   Visibility: 7mi
Dew Point: 32°   Wind: 3mph
Humidity: 81%   Direction: 190°S
Pressure: 29.72"   Gusts: NA
Location:  38.97°N, 83.02°W
Report Text: KRZT 252014Z AUTO 19003KT 7SM DZ BKN024 OVC033 03/00 A2972 RMK AO2
Loading
Personal Weather Stations






























Interactive Weather Map New forecast layout! Learn more

10-Day Weather Forecast

Advertisements
Track Severe Weather on mobile